Time;durP1;ratioP1;P1;durP2;ratioP2;P2;SDS_P1;SDS_P2;PMS_P1;PMS_P2;Temp;Humidity;BMP_temperature;BMP_pressure;BME280_temperature;BME280_humidity;BME280_pressure;Samples;Min_cycle;Max_cycle;Signal;HPM_P1;HPM_P2
2022/12/13 00:00:46;;;;;;;14.40;7.07;;;;;;;-4.05;100.00;100518.69;4981017;28;20228;-73
2022/12/13 00:03:12;;;;;;;12.03;7.80;;;;;;;-4.02;100.00;100517.09;4984529;28;20573;-73
2022/12/13 00:05:44;;;;;;;15.10;6.73;;;;;;;-4.03;100.00;100517.06;4987171;28;20208;-73
2022/12/13 00:08:10;;;;;;;12.33;5.93;;;;;;;-4.01;100.00;100507.78;4986675;28;20225;-72
2022/12/13 00:10:37;;;;;;;12.23;6.83;;;;;;;-4.02;100.00;100503.50;4984253;28;20200;-73
2022/12/13 00:13:03;;;;;;;12.70;6.47;;;;;;;-4.00;100.00;100507.81;4983983;28;20209;-73
2022/12/13 00:15:31;;;;;;;13.00;6.53;;;;;;;-3.98;100.00;100505.31;4985395;28;20229;-72
2022/12/13 00:17:57;;;;;;;13.03;6.80;;;;;;;-3.99;100.00;100503.63;4984701;28;20221;-73
2022/12/13 00:20:24;;;;;;;13.20;7.20;;;;;;;-3.98;100.00;100502.78;4984952;28;20205;-71
2022/12/13 00:22:52;;;;;;;11.80;7.30;;;;;;;-3.95;100.00;100500.34;4988605;28;20204;-73
2022/12/13 00:25:20;;;;;;;14.93;7.60;;;;;;;-3.96;100.00;100492.63;4986556;28;20212;-73
2022/12/13 00:27:46;;;;;;;13.40;6.77;;;;;;;-3.94;100.00;100496.09;4988226;28;20217;-73
2022/12/13 00:30:13;;;;;;;11.73;6.60;;;;;;;-3.97;100.00;100496.88;4987639;28;20574;-73
2022/12/13 00:32:39;;;;;;;14.90;7.00;;;;;;;-3.93;100.00;100492.75;4984947;28;20198;-71
2022/12/13 00:35:06;;;;;;;12.50;6.70;;;;;;;-3.93;100.00;100503.78;4989187;28;20666;-73
2022/12/13 00:37:32;;;;;;;12.30;7.50;;;;;;;-3.95;100.00;100505.44;4986046;28;20515;-73
2022/12/13 00:40:00;;;;;;;13.93;7.40;;;;;;;-3.91;100.00;100501.28;4989318;28;20354;-73
2022/12/13 00:42:26;;;;;;;14.30;7.40;;;;;;;-3.89;100.00;100497.97;4987084;28;20198;-71
2022/12/13 00:44:53;;;;;;;13.20;7.40;;;;;;;-3.90;100.00;100492.84;4986165;28;20208;-72
2022/12/13 00:47:21;;;;;;;13.33;7.23;;;;;;;-3.91;100.00;100493.66;4986619;28;20290;-72
2022/12/13 00:49:47;;;;;;;13.13;7.00;;;;;;;-3.92;100.00;100494.44;4982941;28;20194;-73
2022/12/13 00:52:13;;;;;;;11.67;6.83;;;;;;;-3.91;100.00;100497.06;4988012;28;20209;-73
2022/12/13 00:54:40;;;;;;;14.07;7.17;;;;;;;-3.91;100.00;100491.97;4990833;28;20207;-73
2022/12/13 00:57:07;;;;;;;13.53;7.10;;;;;;;-3.90;100.00;100493.69;4987413;28;20212;-73
2022/12/13 00:59:34;;;;;;;14.63;7.50;;;;;;;-3.89;100.00;100487.78;4988259;28;20281;-73
2022/12/13 01:02:00;;;;;;;12.17;6.70;;;;;;;-3.88;100.00;100492.06;4987124;28;20217;-72
2022/12/13 01:04:27;;;;;;;13.87;7.20;;;;;;;-3.85;100.00;100497.25;4987997;28;20202;-73
2022/12/13 01:06:54;;;;;;;16.77;6.63;;;;;;;-3.87;100.00;100493.81;4988302;28;20204;-71
2022/12/13 01:09:25;;;;;;;16.87;7.40;;;;;;;-3.86;100.00;100502.28;4988509;28;20205;-73
2022/12/13 01:11:56;;;;;;;13.77;7.00;;;;;;;-3.89;100.00;100502.19;4987072;28;20193;-72
2022/12/13 01:14:24;;;;;;;13.37;7.00;;;;;;;-3.88;100.00;100491.19;4986532;28;20198;-73
2022/12/13 01:16:54;;;;;;;12.20;7.10;;;;;;;-3.91;100.00;100491.97;4985821;28;20197;-73
2022/12/13 01:19:21;;;;;;;15.47;8.10;;;;;;;-3.93;100.00;100485.09;4987067;28;20247;-73
2022/12/13 01:21:49;;;;;;;14.33;7.87;;;;;;;-3.94;100.00;100494.44;4984989;28;20240;-72
2022/12/13 01:24:19;;;;;;;16.30;7.70;;;;;;;-3.93;100.00;100487.66;4986505;28;20651;-73
2022/12/13 01:26:46;;;;;;;15.60;7.77;;;;;;;-3.94;100.00;100479.16;4991789;28;20197;-71
2022/12/13 01:29:12;;;;;;;11.50;7.13;;;;;;;-3.93;100.00;100480.00;4981021;28;20233;-72
2022/12/13 01:31:40;;;;;;;13.20;7.30;;;;;;;-3.93;100.00;100482.56;4987565;28;20205;-72
2022/12/13 01:34:09;;;;;;;13.00;7.83;;;;;;;-3.95;100.00;100476.56;4986880;28;20205;-72
2022/12/13 01:36:36;;;;;;;14.73;8.03;;;;;;;-3.96;100.00;100468.03;4989665;28;20201;-72
2022/12/13 01:39:03;;;;;;;14.87;7.50;;;;;;;-3.97;100.00;100465.44;4986820;28;20762;-72
2022/12/13 01:41:30;;;;;;;14.83;7.43;;;;;;;-3.98;100.00;100467.13;4985340;28;20222;-72
2022/12/13 01:44:01;;;;;;;13.13;7.63;;;;;;;-3.95;100.00;100466.38;4987244;28;20204;-73
2022/12/13 01:46:29;;;;;;;13.90;7.27;;;;;;;-3.94;100.00;100462.97;4987950;28;20206;-73
2022/12/13 01:49:02;;;;;;;16.27;7.73;;;;;;;-3.97;100.00;100466.31;4984401;28;20221;-73
2022/12/13 01:51:33;;;;;;;12.43;7.03;;;;;;;-3.97;100.00;100467.97;4987119;28;20542;-73
2022/12/13 01:54:03;;;;;;;15.33;8.63;;;;;;;-3.98;100.00;100467.13;4986039;28;20202;-73
2022/12/13 01:56:34;;;;;;;17.53;8.50;;;;;;;-3.98;100.00;100471.34;4985418;28;20205;-73
2022/12/13 01:59:02;;;;;;;15.57;8.10;;;;;;;-3.97;100.00;100467.97;4987166;28;20303;-72
2022/12/13 02:01:29;;;;;;;18.00;8.60;;;;;;;-3.99;100.00;100470.50;4984274;28;20222;-73
2022/12/13 02:03:56;;;;;;;15.30;8.07;;;;;;;-3.98;100.00;100473.91;4983867;28;20503;-72
2022/12/13 02:06:30;;;;;;;12.87;7.37;;;;;;;-3.96;100.00;100477.34;4983588;28;20232;-71
2022/12/13 02:08:57;;;;;;;14.90;7.60;;;;;;;-3.99;100.00;100475.59;4986712;28;20953;-73
2022/12/13 02:11:25;;;;;;;15.77;7.87;;;;;;;-3.95;100.00;100476.56;4985422;28;20182;-71
2022/12/13 02:13:51;;;;;;;13.57;7.40;;;;;;;-3.97;100.00;100468.84;4985599;28;20543;-73
2022/12/13 02:16:27;;;;;;;15.23;8.83;;;;;;;-3.98;100.00;100473.91;4987966;28;20207;-72
2022/12/13 02:19:15;;;;;;;14.70;7.67;;;;;;;-3.98;100.00;100473.91;4985612;28;20224;-73
2022/12/13 02:21:56;;;;;;;14.20;7.83;;;;;;;-3.96;100.00;100464.63;4986339;28;20217;-73
2022/12/13 02:24:48;;;;;;;16.33;8.30;;;;;;;-3.97;100.00;100468.84;4989255;28;20200;-73
2022/12/13 02:27:35;;;;;;;18.00;8.33;;;;;;;-4.00;100.00;100459.44;4986276;28;20232;-73
2022/12/13 02:30:21;;;;;;;16.80;8.60;;;;;;;-3.97;100.00;100458.66;4985140;28;20212;-73
2022/12/13 02:32:57;;;;;;;15.87;7.97;;;;;;;-3.97;100.00;100451.03;4986491;28;20271;-73
2022/12/13 02:35:31;;;;;;;13.93;7.67;;;;;;;-4.00;100.00;100454.34;4985949;28;20193;-72
2022/12/13 02:38:08;;;;;;;15.00;8.23;;;;;;;-4.01;100.00;100454.28;4983681;28;20225;-73
2022/12/13 02:40:39;;;;;;;15.23;8.33;;;;;;;-4.01;100.00;100457.72;4987262;28;20205;-72
2022/12/13 02:43:12;;;;;;;15.57;8.40;;;;;;;-4.00;100.00;100458.56;4986875;28;20653;-72
2022/12/13 02:45:44;;;;;;;15.30;8.43;;;;;;;-4.01;100.00;100460.25;4985463;28;20205;-72
2022/12/13 02:48:13;;;;;;;13.73;7.37;;;;;;;-4.03;100.00;100458.47;4983026;28;20229;-73
2022/12/13 02:50:41;;;;;;;14.50;7.67;;;;;;;-4.01;100.00;100460.25;4986009;28;20197;-72
2022/12/13 02:53:09;;;;;;;14.37;8.10;;;;;;;-4.00;100.00;100461.13;4985866;28;20201;-72
2022/12/13 02:55:38;;;;;;;14.77;8.10;;;;;;;-3.97;100.00;100457.78;4986350;28;20220;-73
2022/12/13 02:58:04;;;;;;;12.40;7.37;;;;;;;-3.97;100.00;100458.66;4984334;28;20225;-72
2022/12/13 03:00:39;;;;;;;11.77;6.13;;;;;;;-3.98;100.00;100466.25;4986341;28;20524;-73
2022/12/13 03:03:17;;;;;;;16.33;8.07;;;;;;;-4.00;100.00;100456.88;4990259;28;20681;-73
2022/12/13 03:08:47;;;;;;;15.27;8.47;;;;;;;-3.98;100.00;100448.44;4985564;28;20725;-72
2022/12/13 03:11:16;;;;;;;18.67;8.47;;;;;;;-3.97;100.00;100453.56;4986043;28;20739;-73
2022/12/13 03:13:49;;;;;;;12.67;7.37;;;;;;;-4.02;100.00;100453.44;4986191;28;20202;-71
2022/12/13 03:16:26;;;;;;;15.20;8.13;;;;;;;-4.00;100.00;100451.78;4986170;28;20201;-70
2022/12/13 03:18:57;;;;;;;13.80;7.70;;;;;;;-3.98;100.00;100456.06;4987254;28;20220;-71
2022/12/13 03:21:24;;;;;;;12.33;6.63;;;;;;;-3.99;100.00;100457.75;4982000;28;20632;-73
2022/12/13 03:23:51;;;;;;;12.57;7.27;;;;;;;-4.01;100.00;100461.91;4983629;28;20293;-70
2022/12/13 03:26:21;;;;;;;15.60;8.37;;;;;;;-3.98;100.00;100461.16;4987342;28;20209;-73
2022/12/13 03:28:49;;;;;;;14.10;7.10;;;;;;;-4.02;100.00;100466.16;4984208;28;20525;-73
2022/12/13 03:31:15;;;;;;;13.93;7.23;;;;;;;-4.02;100.00;100463.63;4985768;28;20204;-72
2022/12/13 03:33:42;;;;;;;13.23;6.80;;;;;;;-4.01;100.00;100456.81;4988021;28;20208;-73
2022/12/13 03:36:11;;;;;;;14.20;7.93;;;;;;;-4.00;100.00;100467.06;4985449;28;20590;-73
2022/12/13 03:38:38;;;;;;;16.90;8.20;;;;;;;-4.02;100.00;100463.63;4984254;28;20216;-73
2022/12/13 03:41:08;;;;;;;16.47;7.83;;;;;;;-3.99;100.00;100460.31;4984250;28;20213;-72
2022/12/13 03:43:35;;;;;;;18.90;8.17;;;;;;;-4.02;100.00;100452.56;4986712;28;20600;-73
2022/12/13 03:46:02;;;;;;;16.80;8.60;;;;;;;-4.01;100.00;100452.63;4982637;28;20224;-72
2022/12/13 03:48:28;;;;;;;16.97;8.73;;;;;;;-4.02;100.00;100453.44;4982297;28;20221;-73
2022/12/13 03:50:56;;;;;;;14.90;8.33;;;;;;;-3.96;100.00;100459.53;4980286;28;20193;-73
2022/12/13 03:53:25;;;;;;;14.37;8.13;;;;;;;-3.94;100.00;100455.34;4980988;28;20252;-73
2022/12/13 03:55:52;;;;;;;14.53;7.97;;;;;;;-3.95;100.00;100464.66;4985128;28;20204;-73
2022/12/13 03:58:18;;;;;;;13.77;8.23;;;;;;;-3.93;100.00;100462.19;4990628;28;20221;-73
2022/12/13 04:00:45;;;;;;;15.47;8.73;;;;;;;-3.96;100.00;100468.03;4989492;28;20201;-71
2022/12/13 04:03:12;;;;;;;17.50;8.10;;;;;;;-3.94;100.00;100462.97;4984496;28;20205;-70
2022/12/13 04:05:38;;;;;;;17.87;8.07;;;;;;;-3.98;100.00;100458.63;4989875;28;20197;-73
2022/12/13 04:08:05;;;;;;;18.57;8.43;;;;;;;-4.01;100.00;100455.16;4987256;28;20236;-72
2022/12/13 04:10:34;;;;;;;16.83;8.07;;;;;;;-4.05;100.00;100458.41;4989515;28;20201;-73
2022/12/13 04:15:47;;;;;;;16.57;8.50;;;;;;;-4.05;100.00;100457.56;4985945;28;20201;-72
2022/12/13 04:18:14;;;;;;;14.57;8.90;;;;;;;-4.05;100.00;100453.31;4988066;28;20629;-73
2022/12/13 04:20:40;;;;;;;17.80;7.67;;;;;;;-4.06;100.00;100456.72;4989525;28;20204;-73
2022/12/13 04:23:07;;;;;;;16.63;7.37;;;;;;;-4.06;100.00;100453.31;4983720;28;20224;-73
2022/12/13 04:25:34;;;;;;;17.57;8.97;;;;;;;-4.04;100.00;100462.72;4984528;28;20197;-73
2022/12/13 04:28:01;;;;;;;17.40;8.87;;;;;;;-4.03;100.00;100454.25;4984796;28;20218;-72
2022/12/13 04:30:27;;;;;;;16.80;8.33;;;;;;;-4.04;100.00;100456.75;4990173;28;20198;-71
2022/12/13 04:32:55;;;;;;;14.00;7.40;;;;;;;-4.05;100.00;100450.78;4983407;28;20205;-72
2022/12/13 04:35:22;;;;;;;13.57;7.87;;;;;;;-4.05;100.00;100460.97;4988905;28;20251;-71
2022/12/13 04:37:48;;;;;;;16.30;8.63;;;;;;;-4.07;100.00;100456.66;4986030;28;20229;-73
2022/12/13 04:40:15;;;;;;;15.03;7.97;;;;;;;-4.07;100.00;100460.06;4987470;28;20212;-73
2022/12/13 04:42:43;;;;;;;16.13;9.10;;;;;;;-4.07;100.00;100457.50;4987448;28;20210;-72
2022/12/13 04:45:12;;;;;;;14.63;8.10;;;;;;;-4.08;100.00;100465.09;4986419;28;20663;-73
2022/12/13 04:47:38;;;;;;;18.07;8.50;;;;;;;-4.06;100.00;100458.41;5005511;22;20208;-71
2022/12/13 04:50:05;;;;;;;15.53;8.27;;;;;;;-4.08;100.00;100466.00;5032868;28;20207;-72
2022/12/13 04:52:34;;;;;;;14.17;7.57;;;;;;;-4.07;100.00;100456.66;5031653;28;20226;-71
2022/12/13 04:55:01;;;;;;;13.10;7.37;;;;;;;-4.10;100.00;100461.66;5021796;28;20590;-71
2022/12/13 04:57:27;;;;;;;17.40;8.90;;;;;;;-4.06;100.00;100456.72;5029277;28;20273;-72
2022/12/13 04:59:55;;;;;;;13.40;7.13;;;;;;;-4.12;100.00;100456.50;5028904;28;20486;-70
2022/12/13 05:02:21;;;;;;;14.50;7.10;;;;;;;-4.13;100.00;100447.16;5024456;28;20217;-70
2022/12/13 05:04:48;;;;;;;17.07;7.57;;;;;;;-4.11;100.00;100457.41;5028617;28;20498;-70
2022/12/13 05:07:14;;;;;;;17.67;8.23;;;;;;;-4.14;100.00;100452.19;5029558;28;20492;-72
2022/12/13 05:09:43;;;;;;;13.87;7.93;;;;;;;-4.14;100.00;100458.16;5021363;28;20203;-72
2022/12/13 05:12:10;;;;;;;15.40;8.23;;;;;;;-4.11;100.00;100460.78;5020862;28;20223;-72
2022/12/13 05:14:36;;;;;;;14.50;7.70;;;;;;;-4.15;100.00;100463.19;5029905;28;20216;-71
2022/12/13 05:17:04;;;;;;;11.90;7.13;;;;;;;-4.12;100.00;100465.84;5023968;28;20208;-72
2022/12/13 05:19:30;;;;;;;12.40;7.10;;;;;;;-4.11;100.00;100462.50;5028405;28;20747;-70
2022/12/13 05:21:57;;;;;;;13.53;8.07;;;;;;;-4.18;100.00;100458.88;5028456;28;20192;-72
2022/12/13 05:24:23;;;;;;;15.63;7.83;;;;;;;-4.14;100.00;100454.75;5027336;28;20821;-72
2022/12/13 05:26:50;;;;;;;13.37;8.27;;;;;;;-4.17;100.00;100458.03;5026764;28;20230;-72
2022/12/13 05:29:17;;;;;;;13.67;8.17;;;;;;;-4.18;100.00;100458.88;5022687;28;21052;-71
2022/12/13 05:31:43;;;;;;;14.57;7.50;;;;;;;-4.16;100.00;100461.47;5022546;28;20702;-71
2022/12/13 05:34:11;;;;;;;15.30;8.83;;;;;;;-4.20;100.00;100463.06;5028225;28;20586;-72
2022/12/13 05:36:37;;;;;;;17.70;7.37;;;;;;;-4.18;100.00;100471.63;5027234;28;20196;-72
2022/12/13 05:39:04;;;;;;;18.07;7.97;;;;;;;-4.17;100.00;100468.22;5031357;28;20223;-72
2022/12/13 05:41:35;;;;;;;13.80;7.80;;;;;;;-4.21;100.00;100464.72;5031556;28;20212;-74
2022/12/13 05:44:01;;;;;;;15.03;6.83;;;;;;;-4.19;100.00;100472.41;5030032;28;20228;-71
2022/12/13 05:46:28;;;;;;;12.90;6.87;;;;;;;-4.19;100.00;100469.88;5031892;28;20208;-72
2022/12/13 05:48:55;;;;;;;15.00;7.53;;;;;;;-4.15;100.00;100470.81;5033635;28;20211;-72
2022/12/13 05:51:22;;;;;;;12.90;7.60;;;;;;;-4.18;100.00;100475.00;5022509;28;20330;-70
2022/12/13 05:53:49;;;;;;;15.27;8.13;;;;;;;-4.20;100.00;100468.16;5025288;28;20265;-72
2022/12/13 05:56:15;;;;;;;15.73;8.37;;;;;;;-4.15;100.00;100469.16;5023495;28;20207;-72
2022/12/13 05:58:42;;;;;;;15.77;8.20;;;;;;;-4.17;100.00;100470.78;5022891;28;20196;-71
2022/12/13 06:01:11;;;;;;;13.33;7.63;;;;;;;-4.17;100.00;100470.78;5020010;28;20196;-73
2022/12/13 06:03:38;;;;;;;15.60;7.80;;;;;;;-4.19;100.00;100475.84;5016577;28;20219;-73
2022/12/13 06:06:07;;;;;;;16.30;8.50;;;;;;;-4.19;100.00;100467.31;5015950;28;20204;-72
2022/12/13 06:08:35;;;;;;;17.30;7.87;;;;;;;-4.20;100.00;100471.56;5016711;28;20204;-72
2022/12/13 06:11:03;;;;;;;13.80;7.83;;;;;;;-4.22;100.00;100469.75;5018105;28;20467;-73
2022/12/13 06:13:30;;;;;;;14.07;8.13;;;;;;;-4.24;100.00;100468.84;5016451;28;20222;-72
2022/12/13 06:16:01;;;;;;;13.03;7.53;;;;;;;-4.23;100.00;100468.91;5016013;28;20215;-70
2022/12/13 06:18:27;;;;;;;14.43;6.90;;;;;;;-4.24;100.00;100464.66;5020441;28;20815;-72
2022/12/13 06:20:59;;;;;;;15.47;7.47;;;;;;;-4.26;100.00;100467.94;5022584;28;20568;-72
2022/12/13 06:23:26;;;;;;;14.83;8.43;;;;;;;-4.27;100.00;100464.56;5018884;28;20262;-73
2022/12/13 06:25:53;;;;;;;11.60;6.87;;;;;;;-4.28;100.00;100462.81;5014684;28;20459;-73
2022/12/13 06:28:20;;;;;;;12.13;7.00;;;;;;;-4.29;100.00;100465.31;5014879;28;20211;-71
2022/12/13 06:30:46;;;;;;;15.60;8.30;;;;;;;-4.30;100.00;100468.69;5011627;28;20902;-72
2022/12/13 06:33:12;;;;;;;12.53;7.87;;;;;;;-4.31;100.00;100467.81;5015369;28;20237;-71
2022/12/13 06:35:39;;;;;;;13.63;6.83;;;;;;;-4.31;100.00;100472.91;5034369;28;20204;-72
2022/12/13 06:38:05;;;;;;;12.90;7.13;;;;;;;-4.28;100.00;100474.69;5023839;28;20200;-70
2022/12/13 06:40:32;;;;;;;12.27;6.93;;;;;;;-4.28;100.00;100474.69;5022225;28;20207;-72
2022/12/13 06:43:00;;;;;;;13.20;7.60;;;;;;;-4.33;100.00;100471.97;5012699;28;20547;-70
2022/12/13 06:45:27;;;;;;;15.67;7.40;;;;;;;-4.29;100.00;100472.94;5012586;28;20946;-70
2022/12/13 06:47:56;;;;;;;12.43;6.50;;;;;;;-4.28;100.00;100473.00;5013622;28;20478;-72
2022/12/13 06:50:22;;;;;;;13.27;6.93;;;;;;;-4.28;100.00;100487.41;5015140;28;20199;-70
2022/12/13 06:52:48;;;;;;;13.23;7.20;;;;;;;-4.29;100.00;100489.09;5015102;28;20487;-73
2022/12/13 06:55:15;;;;;;;11.40;7.07;;;;;;;-4.27;100.00;100491.69;5015701;28;20505;-72
2022/12/13 06:57:42;;;;;;;11.97;7.07;;;;;;;-4.31;100.00;100485.66;5023659;28;20466;-71
2022/12/13 07:00:12;;;;;;;10.70;6.40;;;;;;;-4.28;100.00;100495.91;5026502;28;20214;-73
2022/12/13 07:02:38;;;;;;;11.13;6.07;;;;;;;-4.26;100.00;100496.81;5007113;28;20554;-71
2022/12/13 07:05:05;;;;;;;11.77;6.07;;;;;;;-4.27;100.00;100499.34;5013786;28;20568;-73
2022/12/13 07:07:32;;;;;;;15.03;6.90;;;;;;;-4.26;100.00;100501.06;5031713;28;20215;-73
2022/12/13 07:09:58;;;;;;;10.37;5.63;;;;;;;-4.26;100.00;100498.50;5012973;28;20204;-73
2022/12/13 07:12:25;;;;;;;12.10;6.33;;;;;;;-4.25;100.00;100497.69;5009677;28;20790;-73
2022/12/13 07:14:51;;;;;;;10.97;6.50;;;;;;;-4.25;100.00;100497.69;5007863;28;20555;-73
2022/12/13 07:17:19;;;;;;;11.30;6.30;;;;;;;-4.26;100.00;100496.81;5010251;28;20258;-71
2022/12/13 07:19:46;;;;;;;13.43;7.17;;;;;;;-4.24;100.00;100500.31;5008858;28;20520;-72
2022/12/13 07:22:13;;;;;;;12.87;6.23;;;;;;;-4.24;100.00;100494.31;5010974;28;20851;-71
2022/12/13 07:24:39;;;;;;;11.47;6.27;;;;;;;-4.24;100.00;100500.31;5010576;28;20536;-73
2022/12/13 07:27:05;;;;;;;11.63;7.50;;;;;;;-4.22;100.00;100505.41;5014330;28;20257;-72
2022/12/13 07:29:32;;;;;;;13.20;7.27;;;;;;;-4.20;100.00;100509.75;5036624;28;20205;-73
2022/12/13 07:31:58;;;;;;;12.13;7.57;;;;;;;-4.19;100.00;100505.53;5028092;28;20199;-73
2022/12/13 07:34:26;;;;;;;16.97;8.80;;;;;;;-4.18;100.00;100509.81;5027919;28;20555;-71
2022/12/13 07:36:52;;;;;;;12.80;7.43;;;;;;;-4.21;100.00;100508.00;5022966;28;20443;-73
2022/12/13 07:39:19;;;;;;;15.27;8.53;;;;;;;-4.18;100.00;100508.13;5017168;28;20673;-72
2022/12/13 07:41:45;;;;;;;16.17;8.43;;;;;;;-4.18;100.00;100510.66;5017610;28;20689;-73
2022/12/13 07:44:12;;;;;;;16.53;8.17;;;;;;;-4.18;100.00;100512.34;5016467;28;20510;-73
2022/12/13 07:46:38;;;;;;;14.80;8.23;;;;;;;-4.18;100.00;100515.75;5019869;28;20457;-73
2022/12/13 07:49:05;;;;;;;14.77;8.47;;;;;;;-4.19;100.00;100508.06;5020239;28;20464;-73
2022/12/13 07:51:35;;;;;;;15.23;9.00;;;;;;;-4.13;100.00;100512.47;5019917;28;20715;-73
2022/12/13 07:54:01;;;;;;;15.83;8.57;;;;;;;-4.13;100.00;100512.47;5018485;28;20243;-73
2022/12/13 07:56:27;;;;;;;17.43;9.13;;;;;;;-4.11;100.00;100511.72;5019848;28;20855;-72
2022/12/13 07:58:54;;;;;;;14.33;7.27;;;;;;;-4.08;100.00;100509.28;5017511;28;20460;-72
2022/12/13 08:01:20;;;;;;;17.60;7.87;;;;;;;-4.09;100.00;100514.31;5018952;28;20808;-71
2022/12/13 08:03:47;;;;;;;18.83;9.50;;;;;;;-4.07;100.00;100516.09;5009778;28;20474;-72
2022/12/13 08:06:13;;;;;;;13.80;7.33;;;;;;;-4.06;100.00;100511.88;5018137;28;20200;-73
2022/12/13 08:08:42;;;;;;;14.30;7.97;;;;;;;-4.05;100.00;100516.13;5016437;28;20211;-71
2022/12/13 08:11:10;;;;;;;12.27;6.23;;;;;;;-4.03;100.00;100517.06;5018470;28;20204;-72
2022/12/13 08:13:38;;;;;;;11.93;7.70;;;;;;;-4.00;100.00;100514.59;5018656;28;20490;-73
2022/12/13 08:16:07;;;;;;;13.13;7.23;;;;;;;-4.02;100.00;100514.56;5024151;28;20614;-74
2022/12/13 08:18:33;;;;;;;13.53;6.93;;;;;;;-3.98;100.00;100514.66;5018801;28;20701;-71
2022/12/13 08:21:04;;;;;;;12.10;6.40;;;;;;;-3.95;100.00;100515.63;5012458;28;20207;-72
2022/12/13 08:23:31;;;;;;;14.73;7.63;;;;;;;-3.97;100.00;100522.34;5011747;28;20641;-73
2022/12/13 08:26:01;;;;;;;14.60;7.77;;;;;;;-3.97;100.00;100519.81;5019285;28;20201;-73
2022/12/13 08:28:28;;;;;;;17.10;7.80;;;;;;;-3.92;100.00;100527.56;5019499;28;20210;-72
2022/12/13 08:30:54;;;;;;;11.60;7.20;;;;;;;-3.90;100.00;100525.97;5019450;28;20229;-73
2022/12/13 08:33:21;;;;;;;13.57;8.27;;;;;;;-3.87;100.00;100524.38;5044643;28;20227;-72
2022/12/13 08:35:48;;;;;;;14.03;7.50;;;;;;;-3.87;100.00;100523.47;5034276;28;20249;-73
2022/12/13 08:38:14;;;;;;;14.53;7.10;;;;;;;-3.80;100.00;100525.41;5036072;28;20779;-73
2022/12/13 08:40:41;;;;;;;12.67;7.13;;;;;;;-3.76;100.00;100531.44;5038408;28;20199;-73
2022/12/13 08:43:09;;;;;;;15.63;7.87;;;;;;;-3.76;100.00;100545.09;5038818;28;20220;-73
2022/12/13 08:45:35;;;;;;;14.37;7.30;;;;;;;-3.71;100.00;100538.44;5033963;28;20402;-73
2022/12/13 08:48:02;;;;;;;11.73;7.13;;;;;;;-3.69;100.00;100538.50;5038530;28;20474;-71
2022/12/13 08:50:30;;;;;;;14.30;7.00;;;;;;;-3.67;100.00;100540.25;5038200;28;20208;-73
2022/12/13 08:52:57;;;;;;;13.93;7.67;;;;;;;-3.63;100.00;100534.41;5030443;28;20230;-73
2022/12/13 08:55:23;;;;;;;13.40;6.47;;;;;;;-3.60;100.00;100543.84;5031404;28;20203;-71
2022/12/13 08:57:49;;;;;;;15.43;7.57;;;;;;;-3.60;100.00;100535.34;5033131;28;20546;-73
2022/12/13 09:00:19;;;;;;;13.67;7.13;;;;;;;-3.55;100.00;100542.31;5035698;28;20223;-72
2022/12/13 09:02:45;;;;;;;11.20;6.93;;;;;;;-3.51;100.00;100541.56;5026584;28;20219;-73
2022/12/13 09:05:12;;;;;;;12.77;6.50;;;;;;;-3.49;100.00;100539.94;5030837;28;20219;-72
2022/12/13 09:07:39;;;;;;;10.50;6.23;;;;;;;-3.43;100.00;100539.25;5035714;28;20210;-73
2022/12/13 09:10:07;;;;;;;11.83;6.37;;;;;;;-3.40;100.00;100535.94;5039387;28;20265;-72
2022/12/13 09:12:33;;;;;;;14.70;6.07;;;;;;;-3.40;100.00;100538.47;5033865;28;20640;-74
2022/12/13 09:14:59;;;;;;;12.23;6.30;;;;;;;-3.38;100.00;100539.38;5043593;28;20231;-73
2022/12/13 09:17:30;;;;;;;10.73;6.37;;;;;;;-3.35;100.00;100534.38;5030865;28;20237;-73
2022/12/13 09:19:56;;;;;;;10.73;6.13;;;;;;;-3.33;100.00;100532.72;5037056;28;20534;-73
2022/12/13 09:22:23;;;;;;;10.63;6.17;;;;;;;-3.22;100.00;100531.34;5028726;28;20199;-74
2022/12/13 09:24:49;;;;;;;9.80;5.90;;;;;;;-3.18;100.00;100534.84;5031942;28;20199;-73
2022/12/13 09:27:16;;;;;;;11.40;5.80;;;;;;;-3.16;100.00;100540.88;5035785;28;20242;-73
2022/12/13 09:29:42;;;;;;;10.57;6.07;;;;;;;-3.13;100.00;100539.28;5040739;28;20196;-73
2022/12/13 09:32:08;;;;;;;10.03;5.87;;;;;;;-3.12;100.00;100537.59;5045224;28;20211;-73
2022/12/13 09:34:36;;;;;;;9.10;5.07;;;;;;;-3.10;100.00;100530.84;5027325;28;20234;-73
2022/12/13 09:37:02;;;;;;;9.40;5.67;;;;;;;-3.08;100.00;100532.63;5031134;28;20204;-73
2022/12/13 09:39:29;;;;;;;8.17;5.10;;;;;;;-3.00;100.00;100529.41;5031433;28;20244;-73
2022/12/13 09:41:57;;;;;;;6.90;4.73;;;;;;;-2.95;100.00;100525.31;5038396;28;20203;-72
2022/12/13 09:44:28;;;;;;;7.57;4.90;;;;;;;-2.93;100.00;100526.19;5026242;28;20211;-72
2022/12/13 09:46:56;;;;;;;10.03;5.03;;;;;;;-2.96;100.00;100526.97;5024145;28;20258;-72
2022/12/13 09:49:29;;;;;;;8.87;5.07;;;;;;;-2.94;100.00;100525.31;5023589;28;20212;-73
2022/12/13 09:52:00;;;;;;;8.53;4.17;;;;;;;-2.94;100.00;100527.88;5024774;28;20242;-73
2022/12/13 09:54:28;;;;;;;10.33;5.27;;;;;;;-2.84;100.00;100539.19;5027016;28;20682;-73
2022/12/13 09:56:56;;;;;;;7.80;4.87;;;;;;;-2.79;100.00;100532.53;5025444;28;20196;-73
2022/12/13 09:59:28;;;;;;;8.87;5.10;;;;;;;-2.74;100.00;100537.78;5028194;28;20226;-73
2022/12/13 10:01:55;;;;;;;7.77;4.67;;;;;;;-2.76;100.00;100536.84;5028587;28;20204;-72
2022/12/13 10:04:21;;;;;;;11.17;4.53;;;;;;;-2.81;100.00;100533.31;5029100;28;20230;-73
2022/12/13 10:06:52;;;;;;;10.57;5.10;;;;;;;-2.75;100.00;100534.34;5026303;28;20558;-73
2022/12/13 10:09:20;;;;;;;7.20;4.23;;;;;;;-2.78;100.00;100535.94;5023772;28;20208;-72
2022/12/13 10:11:48;;;;;;;9.70;4.67;;;;;;;-2.74;100.00;100537.78;5023574;28;20192;-73
2022/12/13 10:14:22;;;;;;;6.70;3.83;;;;;;;-2.71;100.00;100532.72;5030823;28;20607;-73
2022/12/13 10:16:52;;;;;;;5.57;4.00;;;;;;;-2.71;100.00;100535.28;5025096;28;20581;-73
2022/12/13 10:19:23;;;;;;;6.73;4.40;;;;;;;-2.61;100.00;100528.75;5023824;28;20208;-73
2022/12/13 10:21:50;;;;;;;6.30;4.10;;;;;;;-2.53;100.00;100525.56;5018818;28;20701;-72
2022/12/13 10:24:20;;;;;;;6.97;4.37;;;;;;;-2.48;100.00;100530.75;5026270;28;20215;-73
2022/12/13 10:26:48;;;;;;;5.83;3.73;;;;;;;-2.49;100.00;100529.91;5021447;28;20200;-72
2022/12/13 10:29:15;;;;;;;6.27;4.03;;;;;;;-2.53;100.00;100525.56;5019743;28;20576;-73
2022/12/13 10:31:44;;;;;;;4.73;3.53;;;;;;;-2.50;100.00;100527.31;5016320;28;20211;-73
2022/12/13 10:34:22;;;;;;;5.20;3.57;;;;;;;-2.50;100.00;100524.75;5016664;28;20215;-73
2022/12/13 10:36:49;;;;;;;4.73;4.10;;;;;;;-2.52;100.00;100531.53;5015704;28;20541;-73
2022/12/13 10:39:17;;;;;;;7.20;4.17;;;;;;;-2.46;100.00;100531.69;5017776;28;20230;-73
2022/12/13 10:41:46;;;;;;;6.47;3.57;;;;;;;-2.54;100.00;100538.28;5029862;28;20243;-71
2022/12/13 10:44:24;;;;;;;4.33;3.27;;;;;;;-2.61;100.00;100547.47;5037445;28;20226;-72
2022/12/13 10:47:03;;;;;;;6.33;3.77;;;;;;;-2.55;100.00;100533.97;5017033;28;20203;-73
2022/12/13 10:49:39;;;;;;;5.03;3.40;;;;;;;-2.49;100.00;100532.47;5016512;28;20207;-71
2022/12/13 10:52:05;;;;;;;4.50;3.27;;;;;;;-2.49;100.00;100529.91;5015808;28;20469;-72
2022/12/13 10:54:35;;;;;;;6.60;3.20;;;;;;;-2.52;100.00;100537.47;5016864;28;20230;-72
2022/12/13 10:57:04;;;;;;;4.67;3.07;;;;;;;-2.47;100.00;100535.91;5016236;28;20203;-72
2022/12/13 10:59:38;;;;;;;6.23;3.07;;;;;;;-2.42;100.00;100535.19;5016898;28;20676;-73
2022/12/13 11:02:06;;;;;;;6.30;3.90;;;;;;;-2.45;100.00;100535.94;5058982;28;20207;-75
2022/12/13 11:04:34;;;;;;;5.00;3.17;;;;;;;-2.46;100.00;100536.81;4943441;28;20294;-75
2022/12/13 11:07:20;;;;;;;6.83;3.63;;;;;;;-2.43;100.00;100528.34;4945048;28;20265;-75
2022/12/13 11:09:46;;;;;;;5.13;3.20;;;;;;;-2.39;100.00;100535.25;4944173;28;20207;-74
2022/12/13 11:12:18;;;;;;;4.87;3.53;;;;;;;-2.35;100.00;100535.38;4947320;28;20694;-74
2022/12/13 11:14:52;;;;;;;6.13;3.60;;;;;;;-2.35;100.00;100537.91;4947030;28;20233;-74
2022/12/13 11:17:22;;;;;;;6.23;3.70;;;;;;;-2.37;100.00;100528.50;4952379;28;20237;-74
2022/12/13 11:19:52;;;;;;;6.23;3.30;;;;;;;-2.35;100.00;100532.81;4948070;28;20198;-74